Time;durP1;ratioP1;P1;durP2;ratioP2;P2;SDS_P1;SDS_P2;PMS_P1;PMS_P2;Temp;Humidity;BMP_temperature;BMP_pressure;BME280_temperature;BME280_humidity;BME280_pressure;Samples;Min_cycle;Max_cycle;Signal;HPM_P1;HPM_P2
2022/02/19 00:00:05;;;;;;;0.08;0.08;;;;;;;;;;10469101;28;20036;-77
2022/02/19 00:05:10;;;;;;;0.52;0.10;;;;;;;;;;10493847;28;20062;-77
2022/02/19 00:10:13;;;;;;;0.43;0.30;;;;;;;;;;10477975;28;20029;-78
2022/02/19 00:15:16;;;;;;;0.52;0.40;;;;;;;;;;10482225;28;20076;-77
2022/02/19 00:20:21;;;;;;;3.13;0.43;;;;;;;;;;10471854;28;20025;-78
2022/02/19 00:25:24;;;;;;;2.67;0.53;;;;;;;;;;10473016;28;20032;-79
2022/02/19 00:30:28;;;;;;;0.90;0.22;;;;;;;;;;10500230;28;20037;-81
2022/02/19 00:35:32;;;;;;;1.33;0.45;;;;;;;;;;10472575;28;20084;-79
2022/02/19 00:40:35;;;;;;;3.20;0.47;;;;;;;;;;10481078;28;20045;-80
2022/02/19 00:45:38;;;;;;;2.92;0.55;;;;;;;;;;10491075;28;20147;-81
2022/02/19 00:50:42;;;;;;;0.00;0.00;;;;;;;;;;10486588;28;20028;-80
2022/02/19 00:55:45;;;;;;;1.77;0.30;;;;;;;;;;10477586;28;20106;-80
2022/02/19 01:00:48;;;;;;;0.50;0.28;;;;;;;;;;10461706;28;20073;-81
2022/02/19 01:05:53;;;;;;;1.37;0.43;;;;;;;;;;10477967;28;20119;-79
2022/02/19 01:10:56;;;;;;;2.58;0.70;;;;;;;;;;10466914;28;20307;-80
2022/02/19 01:15:59;;;;;;;0.13;0.10;;;;;;;;;;10463137;28;20044;-79
2022/02/19 01:21:03;;;;;;;0.43;0.20;;;;;;;;;;10483930;28;20100;-78
2022/02/19 01:26:06;;;;;;;1.52;0.30;;;;;;;;;;10482012;28;20059;-81
2022/02/19 01:31:09;;;;;;;2.00;0.27;;;;;;;;;;10479563;28;20182;-80
2022/02/19 01:36:13;;;;;;;0.00;0.00;;;;;;;;;;10461973;28;20064;-78
2022/02/19 01:41:17;;;;;;;1.63;0.50;;;;;;;;;;10478872;28;20061;-81
2022/02/19 01:46:20;;;;;;;2.10;0.50;;;;;;;;;;10480758;28;20525;-80
2022/02/19 01:51:25;;;;;;;1.40;0.38;;;;;;;;;;10479069;28;20047;-81
2022/02/19 01:56:27;;;;;;;;;;;;;;;;;;10475306;28;20445;-79
2022/02/19 02:01:30;;;;;;;2.20;0.60;;;;;;;;;;10453716;28;19987;-80
2022/02/19 02:06:35;;;;;;;2.43;0.30;;;;;;;;;;10466916;28;20051;-79
2022/02/19 02:11:38;;;;;;;0.20;0.10;;;;;;;;;;10479505;28;20064;-79
2022/02/19 02:16:42;;;;;;;1.00;0.30;;;;;;;;;;10450374;28;20059;-79
2022/02/19 02:21:47;;;;;;;0.20;0.10;;;;;;;;;;10455458;28;20053;-80
2022/02/19 02:26:51;;;;;;;3.63;0.60;;;;;;;;;;10443235;28;20041;-80
2022/02/19 02:31:53;;;;;;;2.33;0.43;;;;;;;;;;10445683;28;20048;-81
2022/02/19 02:36:58;;;;;;;0.05;0.00;;;;;;;;;;10468907;28;20045;-80
2022/02/19 02:42:01;;;;;;;1.53;0.30;;;;;;;;;;10441482;28;20056;-80
2022/02/19 02:47:04;;;;;;;0.63;0.30;;;;;;;;;;10479513;28;20071;-80
2022/02/19 02:52:09;;;;;;;2.27;0.60;;;;;;;;;;10427079;28;20102;-79
2022/02/19 02:57:12;;;;;;;1.30;0.70;;;;;;;;;;10457746;28;20122;-78
2022/02/19 03:02:15;;;;;;;3.10;0.67;;;;;;;;;;10471382;28;20086;-80
2022/02/19 03:07:20;;;;;;;1.30;0.30;;;;;;;;;;10499827;28;20126;-80
2022/02/19 03:12:23;;;;;;;1.98;0.43;;;;;;;;;;10487433;28;20063;-81
2022/02/19 03:17:26;;;;;;;1.60;0.50;;;;;;;;;;10487027;28;20120;-81
2022/02/19 03:22:29;;;;;;;;;;;;;;;;;;10473037;28;20044;-81
2022/02/19 03:27:32;;;;;;;;;;;;;;;;;;10483116;28;19967;-81
2022/02/19 03:32:35;;;;;;;;;;;;;;;;;;10477812;28;19920;-80
2022/02/19 03:37:38;;;;;;;;;;;;;;;;;;10478944;28;19929;-79
2022/02/19 03:42:40;;;;;;;;;;;;;;;;;;10488197;28;19947;-79
2022/02/19 03:47:44;;;;;;;;;;;;;;;;;;10460316;28;19932;-78
2022/02/19 03:52:46;;;;;;;;;;;;;;;;;;10458009;28;19929;-79
2022/02/19 03:57:51;;;;;;;0.27;0.00;;;;;;;;;;10470515;28;19932;-79
2022/02/19 04:02:54;;;;;;;1.70;0.20;;;;;;;;;;10500147;28;20421;-78
2022/02/19 04:07:57;;;;;;;0.80;0.20;;;;;;;;;;10462392;28;20441;-80
2022/02/19 04:13:01;;;;;;;1.43;0.20;;;;;;;;;;10460837;28;20049;-79
2022/02/19 04:18:04;;;;;;;;;;;;;;;;;;10504780;28;20044;-77
2022/02/19 04:23:07;;;;;;;;;;;;;;;;;;10489301;28;19925;-79
2022/02/19 04:28:10;;;;;;;;;;;;;;;;;;10478753;28;20011;-80
2022/02/19 04:33:13;;;;;;;;;;;;;;;;;;10483195;28;19920;-80
2022/02/19 04:38:15;;;;;;;;;;;;;;;;;;10458657;28;19987;-79
2022/02/19 04:43:19;;;;;;;;;;;;;;;;;;10477435;28;20011;-79
2022/02/19 04:48:21;;;;;;;;;;;;;;;;;;10493737;28;19930;-77
2022/02/19 04:53:24;;;;;;;;;;;;;;;;;;10481380;28;19940;-77
2022/02/19 04:58:27;;;;;;;;;;;;;;;;;;10481953;28;19932;-78
2022/02/19 05:03:31;;;;;;;;;;;;;;;;;;10478168;28;20375;-77
2022/02/19 05:08:35;;;;;;;;;;;;;;;;;;10487702;28;20161;-80
2022/02/19 05:13:38;;;;;;;;;;;;;;;;;;10483202;28;19934;-77
2022/02/19 05:18:41;;;;;;;;;;;;;;;;;;10488555;28;19943;-78
2022/02/19 05:23:45;;;;;;;;;;;;;;;;;;10478382;28;19931;-78
2022/02/19 05:28:48;;;;;;;;;;;;;;;;;;10454675;28;19948;-79
2022/02/19 05:33:51;;;;;;;;;;;;;;;;;;10479264;28;20031;-79
2022/02/19 05:38:56;;;;;;;;;;;;;;;;;;10475560;28;19936;-79
2022/02/19 05:44:00;;;;;;;;;;;;;;;;;;10462968;28;19944;-79
2022/02/19 05:49:03;;;;;;;;;;;;;;;;;;10457236;28;19978;-79
2022/02/19 05:54:06;;;;;;;;;;;;;;;;;;10485476;28;19967;-79
2022/02/19 05:59:09;;;;;;;;;;;;;;;;;;10465224;28;19921;-81
2022/02/19 06:04:12;;;;;;;;;;;;;;;;;;10489213;28;19927;-77
2022/02/19 06:09:16;;;;;;;;;;;;;;;;;;10451747;28;19986;-78
2022/02/19 06:14:19;;;;;;;;;;;;;;;;;;10482804;28;20031;-78
2022/02/19 06:19:23;;;;;;;;;;;;;;;;;;10481788;28;20608;-79
2022/02/19 06:24:26;;;;;;;;;;;;;;;;;;10463927;28;19946;-78
2022/02/19 06:29:29;;;;;;;;;;;;;;;;;;10487827;28;20019;-79
2022/02/19 06:34:32;;;;;;;;;;;;;;;;;;10487541;28;19948;-78
2022/02/19 06:39:35;;;;;;;;;;;;;;;;;;10473936;28;19924;-79
2022/02/19 06:44:38;;;;;;;;;;;;;;;;;;10485344;28;19935;-78
2022/02/19 06:49:41;;;;;;;;;;;;;;;;;;10469240;28;19935;-80
2022/02/19 06:54:44;;;;;;;;;;;;;;;;;;10488143;28;19920;-78
2022/02/19 06:59:47;;;;;;;;;;;;;;;;;;10471862;28;19916;-82
2022/02/19 07:04:50;;;;;;;;;;;;;;;;;;10476980;28;19932;-80
2022/02/19 07:09:53;;;;;;;;;;;;;;;;;;10481701;28;20222;-81
2022/02/19 07:14:58;;;;;;;2.20;0.43;;;;;;;;;;10482626;28;20014;-78
2022/02/19 07:20:02;;;;;;;2.40;0.75;;;;;;;;;;10490016;28;20033;-79
2022/02/19 07:25:08;;;;;;;2.05;0.70;;;;;;;;;;10467628;28;20029;-80
2022/02/19 07:30:11;;;;;;;;;;;;;;;;;;10500462;28;20071;-79
2022/02/19 07:35:15;;;;;;;6.77;1.33;;;;;;;;;;10501202;28;19920;-78
2022/02/19 07:40:18;;;;;;;;;;;;;;;;;;10507466;28;20032;-81
2022/02/19 07:45:21;;;;;;;;;;;;;;;;;;10465974;28;20269;-80
2022/02/19 08:01:08;;;;;;;2.50;0.80;;;;;;;;;;10480390;28;19936;-77
2022/02/19 08:06:13;;;;;;;1.27;0.50;;;;;;;;;;10478117;28;20055;-76
2022/02/19 08:11:15;;;;;;;;;;;;;;;;;;10459776;28;20041;-77
2022/02/19 08:16:18;;;;;;;;;;;;;;;;;;10470952;28;19971;-75
2022/02/19 08:21:23;;;;;;;;;;;;;;;;;;10455261;28;20295;-76
2022/02/19 08:26:27;;;;;;;0.98;0.65;;;;;;;;;;10465363;28;19939;-75
2022/02/19 08:31:30;;;;;;;;;;;;;;;;;;10461223;28;20408;-79
2022/02/19 08:36:33;;;;;;;7.93;2.17;;;;;;;;;;10473076;28;19999;-81
2022/02/19 08:41:37;;;;;;;6.30;2.78;;;;;;;;;;10461947;28;20107;-79
2022/02/19 08:46:41;;;;;;;7.32;0.80;;;;;;;;;;10498522;28;20100;-79
2022/02/19 08:51:44;;;;;;;9.90;1.40;;;;;;;;;;10524379;22;20923;-71
2022/02/19 08:56:50;;;;;;;3.83;1.00;;;;;;;;;;10512457;28;20044;-71
2022/02/19 09:01:53;;;;;;;4.25;1.13;;;;;;;;;;10524193;28;20089;-72
2022/02/19 09:06:56;;;;;;;0.98;0.40;;;;;;;;;;10521375;28;20074;-72
2022/02/19 09:12:00;;;;;;;2.20;0.82;;;;;;;;;;10512022;28;20127;-72
2022/02/19 09:17:03;;;;;;;3.03;1.05;;;;;;;;;;10515608;28;20508;-71
2022/02/19 09:22:07;;;;;;;2.53;0.60;;;;;;;;;;10525167;22;20414;-67
2022/02/19 09:27:11;;;;;;;4.85;0.75;;;;;;;;;;10503272;28;20446;-68
2022/02/19 09:32:14;;;;;;;;;;;;;;;;;;10504512;28;20404;-68
2022/02/19 09:37:17;;;;;;;2.72;1.05;;;;;;;;;;10484273;28;19920;-68
2022/02/19 09:42:20;;;;;;;;;;;;;;;;;;10477189;28;20048;-66
2022/02/19 09:47:26;;;;;;;3.23;1.17;;;;;;;;;;10493826;28;19920;-67
2022/02/19 09:52:29;;;;;;;1.38;0.90;;;;;;;;;;10477358;28;20047;-67
2022/02/19 09:57:32;;;;;;;5.53;1.45;;;;;;;;;;10506174;28;20060;-68
2022/02/19 10:02:37;;;;;;;2.60;0.80;;;;;;;;;;10479367;28;20044;-68
2022/02/19 10:07:41;;;;;;;1.10;1.00;;;;;;;;;;10497525;28;20677;-67
2022/02/19 10:12:45;;;;;;;1.73;1.08;;;;;;;;;;10485470;28;20044;-68
2022/02/19 10:17:49;;;;;;;1.15;0.60;;;;;;;;;;10487694;28;20079;-68
2022/02/19 10:22:52;;;;;;;1.50;0.45;;;;;;;;;;10492867;28;20036;-67
2022/02/19 10:27:57;;;;;;;0.88;0.80;;;;;;;;;;10488050;28;20044;-68
2022/02/19 10:33:04;;;;;;;1.23;0.77;;;;;;;;;;10475362;28;20079;-66
2022/02/19 10:38:08;;;;;;;1.58;0.70;;;;;;;;;;10482529;28;20131;-69
2022/02/19 10:43:12;;;;;;;2.40;1.20;;;;;;;;;;10476426;28;20105;-68
2022/02/19 10:48:17;;;;;;;0.77;0.60;;;;;;;;;;10476158;28;20048;-65
2022/02/19 10:53:21;;;;;;;3.20;0.77;;;;;;;;;;10495239;28;20488;-68
2022/02/19 10:58:24;;;;;;;3.30;0.90;;;;;;;;;;10497120;28;20028;-66
2022/02/19 11:03:29;;;;;;;1.45;0.90;;;;;;;;;;10479586;28;20079;-70
2022/02/19 11:08:32;;;;;;;4.72;1.40;;;;;;;;;;10495572;28;20058;-67
2022/02/19 11:13:37;;;;;;;5.13;1.50;;;;;;;;;;10486429;28;20451;-67
2022/02/19 11:18:43;;;;;;;0.93;0.63;;;;;;;;;;10495648;28;20055;-69
2022/02/19 11:24:06;;;;;;;4.23;1.13;;;;;;;;;;10473469;28;20447;-67
2022/02/19 11:29:12;;;;;;;4.78;1.13;;;;;;;;;;10482733;28;20298;-66
2022/02/19 11:34:20;;;;;;;4.05;1.70;;;;;;;;;;10480301;28;20109;-70
2022/02/19 11:39:23;;;;;;;4.00;1.40;;;;;;;;;;10487030;28;20028;-67
2022/02/19 11:44:29;;;;;;;4.03;1.25;;;;;;;;;;10475938;28;20454;-68
2022/02/19 11:49:34;;;;;;;3.38;1.00;;;;;;;;;;10485536;28;20406;-68
2022/02/19 11:54:38;;;;;;;4.18;1.08;;;;;;;;;;10474849;28;20157;-69
2022/02/19 11:59:41;;;;;;;3.80;1.10;;;;;;;;;;10474842;28;20143;-67
2022/02/19 12:05:06;;;;;;;6.00;1.48;;;;;;;;;;10493143;28;20042;-68
2022/02/19 12:10:14;;;;;;;4.25;1.10;;;;;;;;;;10489422;28;20061;-68
2022/02/19 12:15:28;;;;;;;2.70;0.90;;;;;;;;;;10495904;28;20040;-67
2022/02/19 12:20:33;;;;;;;3.33;0.90;;;;;;;;;;10472921;28;20040;-68
2022/02/19 12:25:55;;;;;;;2.97;1.08;;;;;;;;;;10468779;28;20045;-66
2022/02/19 12:31:20;;;;;;;5.60;1.80;;;;;;;;;;10465820;28;20123;-67
2022/02/19 12:36:24;;;;;;;5.47;1.42;;;;;;;;;;10490064;28;20412;-67
2022/02/19 12:41:27;;;;;;;4.03;1.10;;;;;;;;;;10478010;28;20036;-68
2022/02/19 12:46:31;;;;;;;1.23;0.50;;;;;;;;;;10481335;28;20036;-67
2022/02/19 12:51:35;;;;;;;3.22;1.25;;;;;;;;;;10478311;28;20371;-67
2022/02/19 12:56:40;;;;;;;1.42;0.90;;;;;;;;;;10473268;28;20040;-67
2022/02/19 13:01:43;;;;;;;2.38;1.00;;;;;;;;;;10490731;28;20032;-68
2022/02/19 13:06:47;;;;;;;2.10;1.15;;;;;;;;;;10494397;28;20557;-65
2022/02/19 13:11:52;;;;;;;4.55;1.00;;;;;;;;;;10473579;28;20709;-68
2022/02/19 13:16:57;;;;;;;5.40;1.42;;;;;;;;;;10471524;28;20032;-68
2022/02/19 13:22:03;;;;;;;2.75;0.80;;;;;;;;;;10474819;28;20071;-68
2022/02/19 13:27:10;;;;;;;2.33;0.80;;;;;;;;;;10469849;28;20093;-67
2022/02/19 13:32:13;;;;;;;3.40;1.05;;;;;;;;;;10485836;28;20032;-68
2022/02/19 13:37:17;;;;;;;6.77;0.73;;;;;;;;;;10490898;28;20503;-67
2022/02/19 13:42:20;;;;;;;2.25;0.60;;;;;;;;;;10477957;28;20051;-66
2022/02/19 13:47:27;;;;;;;0.55;0.38;;;;;;;;;;10487105;28;20047;-69
2022/02/19 13:52:32;;;;;;;1.90;0.65;;;;;;;;;;10473550;28;20048;-67
2022/02/19 13:57:35;;;;;;;2.55;0.57;;;;;;;;;;10488669;28;20396;-67
2022/02/19 14:02:38;;;;;;;1.27;0.73;;;;;;;;;;10489154;28;20044;-68
2022/02/19 14:07:53;;;;;;;3.30;1.00;;;;;;;;;;10482299;28;20064;-68
2022/02/19 14:12:56;;;;;;;2.50;1.13;;;;;;;;;;10485485;28;20040;-68
2022/02/19 14:18:05;;;;;;;4.88;0.65;;;;;;;;;;10487886;28;20028;-68
2022/02/19 14:23:13;;;;;;;1.45;0.45;;;;;;;;;;10472079;28;20051;-69
2022/02/19 14:28:17;;;;;;;3.72;1.30;;;;;;;;;;10481034;28;20040;-68
2022/02/19 14:33:22;;;;;;;0.68;0.43;;;;;;;;;;10495455;28;20032;-68
2022/02/19 14:38:26;;;;;;;3.83;0.47;;;;;;;;;;10494532;28;20040;-67
2022/02/19 14:43:32;;;;;;;4.82;1.30;;;;;;;;;;10503950;28;20059;-67
2022/02/19 14:48:36;;;;;;;4.43;0.90;;;;;;;;;;10499931;28;20040;-67
2022/02/19 14:53:40;;;;;;;6.97;1.50;;;;;;;;;;10478492;28;20488;-68
2022/02/19 14:58:43;;;;;;;3.20;0.82;;;;;;;;;;10495486;28;20492;-69
2022/02/19 15:03:46;;;;;;;2.00;0.45;;;;;;;;;;10474501;28;20039;-68
2022/02/19 15:08:51;;;;;;;1.90;0.70;;;;;;;;;;10475484;28;20417;-67
2022/02/19 15:13:54;;;;;;;2.67;0.90;;;;;;;;;;10478463;28;20131;-68
2022/02/19 15:18:58;;;;;;;0.75;0.20;;;;;;;;;;10493198;28;20075;-69
2022/02/19 15:24:03;;;;;;;4.40;0.80;;;;;;;;;;10550154;22;20051;-71
2022/02/19 15:29:06;;;;;;;1.98;0.45;;;;;;;;;;10555709;28;20031;-72
2022/02/19 15:34:08;;;;;;;2.75;0.70;;;;;;;;;;10539978;28;20036;-72
2022/02/19 15:39:13;;;;;;;2.05;0.50;;;;;;;;;;10561951;28;20044;-71
2022/02/19 15:44:15;;;;;;;7.22;1.23;;;;;;;;;;10537704;28;20278;-71
2022/02/19 15:49:18;;;;;;;3.67;0.75;;;;;;;;;;10551802;28;20042;-70
2022/02/19 15:54:23;;;;;;;1.42;0.52;;;;;;;;;;10553993;28;20035;-71
2022/02/19 15:59:25;;;;;;;;;;;;;;;;;;10532937;28;20452;-71
2022/02/19 16:04:28;;;;;;;2.42;0.15;;;;;;;;;;10538912;28;20385;-71
2022/02/19 16:09:32;;;;;;;1.83;0.60;;;;;;;;;;10537377;28;20070;-71
2022/02/19 16:14:35;;;;;;;3.22;0.63;;;;;;;;;;10552676;28;20432;-70
2022/02/19 16:19:38;;;;;;;1.20;0.50;;;;;;;;;;10551966;28;20071;-70
2022/02/19 16:24:42;;;;;;;0.90;0.80;;;;;;;;;;10550429;28;20247;-71
2022/02/19 16:29:44;;;;;;;;;;;;;;;;;;10527828;27;20067;-71
2022/02/19 16:34:48;;;;;;;1.83;0.40;;;;;;;;;;10540917;28;19923;-72
2022/02/19 16:39:52;;;;;;;2.63;1.07;;;;;;;;;;10530170;28;20052;-71
2022/02/19 16:44:56;;;;;;;2.90;0.50;;;;;;;;;;10556094;28;20032;-71
2022/02/19 16:50:00;;;;;;;1.77;0.50;;;;;;;;;;10533788;27;20066;-70
2022/02/19 16:55:06;;;;;;;1.00;0.63;;;;;;;;;;10553970;28;20036;-69
2022/02/19 17:00:12;;;;;;;0.63;0.30;;;;;;;;;;10533243;28;20035;-72
2022/02/19 17:05:15;;;;;;;1.63;0.47;;;;;;;;;;10552381;28;20032;-70
2022/02/19 17:10:20;;;;;;;5.40;1.03;;;;;;;;;;10533459;28;20816;-71
2022/02/19 17:15:23;;;;;;;6.90;1.40;;;;;;;;;;10547794;28;20036;-71
2022/02/19 17:20:26;;;;;;;5.03;1.40;;;;;;;;;;10552089;27;20522;-71
2022/02/19 17:25:31;;;;;;;5.43;1.30;;;;;;;;;;10543836;28;20044;-70
2022/02/19 17:30:33;;;;;;;;;;;;;;;;;;10544937;28;20036;-70
2022/02/19 17:35:37;;;;;;;3.67;1.73;;;;;;;;;;10537969;28;19963;-71
2022/02/19 17:40:41;;;;;;;1.13;0.70;;;;;;;;;;10527933;28;20426;-72
2022/02/19 17:45:44;;;;;;;3.50;0.70;;;;;;;;;;10551709;28;20036;-71
2022/02/19 17:50:47;;;;;;;2.70;0.80;;;;;;;;;;10533094;28;20454;-72
2022/02/19 17:55:52;;;;;;;4.13;1.50;;;;;;;;;;10544728;28;20112;-71
2022/02/19 18:00:55;;;;;;;1.97;0.73;;;;;;;;;;10533430;28;20036;-71
2022/02/19 18:05:58;;;;;;;3.70;1.47;;;;;;;;;;10531138;28;20031;-71
2022/02/19 18:11:02;;;;;;;1.50;0.70;;;;;;;;;;10546020;28;20038;-72
2022/02/19 18:16:04;;;;;;;;;;;;;;;;;;10537616;28;20035;-69
2022/02/19 18:21:07;;;;;;;10.37;1.73;;;;;;;;;;10557076;27;20403;-70
2022/02/19 18:26:12;;;;;;;1.98;1.42;;;;;;;;;;10560198;28;20446;-73
2022/02/19 18:31:15;;;;;;;;;;;;;;;;;;10543558;28;20047;-72
2022/02/19 18:36:18;;;;;;;1.40;0.93;;;;;;;;;;10541168;28;19943;-70
2022/02/19 18:41:23;;;;;;;6.87;0.90;;;;;;;;;;10550696;28;20130;-70
2022/02/19 18:46:26;;;;;;;3.10;1.50;;;;;;;;;;10535907;28;20067;-72
2022/02/19 18:51:29;;;;;;;7.40;1.20;;;;;;;;;;10557393;28;20040;-72
2022/02/19 18:56:33;;;;;;;3.77;2.03;;;;;;;;;;10533669;28;20039;-71
2022/02/19 19:01:36;;;;;;;;;;;;;;;;;;10536701;28;20188;-70
2022/02/19 19:06:39;;;;;;;2.53;1.10;;;;;;;;;;10544688;28;20407;-71
2022/02/19 19:11:43;;;;;;;5.77;1.90;;;;;;;;;;10550294;28;20047;-70
2022/02/19 19:16:46;;;;;;;;;;;;;;;;;;10550385;28;20035;-71
2022/02/19 19:21:48;;;;;;;2.27;1.60;;;;;;;;;;10539902;28;20241;-71
2022/02/19 19:26:53;;;;;;;3.10;1.40;;;;;;;;;;10554107;28;20520;-70
2022/02/19 19:31:56;;;;;;;8.40;3.33;;;;;;;;;;10537900;27;20209;-71
2022/02/19 19:36:58;;;;;;;2.60;1.37;;;;;;;;;;10535782;28;20036;-71
2022/02/19 19:42:03;;;;;;;1.10;0.67;;;;;;;;;;10550886;28;20043;-69
2022/02/19 19:47:07;;;;;;;2.13;0.60;;;;;;;;;;10536646;28;20089;-70
2022/02/19 19:52:10;;;;;;;1.52;0.65;;;;;;;;;;10554056;28;20040;-71
2022/02/19 19:57:15;;;;;;;6.73;1.77;;;;;;;;;;10551972;28;20032;-72
2022/02/19 20:02:17;;;;;;;6.73;1.73;;;;;;;;;;10556452;28;20055;-74
2022/02/19 20:07:21;;;;;;;2.67;1.02;;;;;;;;;;10538575;28;20043;-70
2022/02/19 20:12:25;;;;;;;4.10;1.10;;;;;;;;;;10554015;28;20058;-70
2022/02/19 20:17:28;;;;;;;;;;;;;;;;;;10554953;28;20454;-70
2022/02/19 20:22:32;;;;;;;5.80;1.20;;;;;;;;;;10530265;28;19920;-70
2022/02/19 20:27:37;;;;;;;1.40;1.00;;;;;;;;;;10532017;28;20039;-71
2022/02/19 20:32:43;;;;;;;1.57;0.90;;;;;;;;;;10535885;28;20147;-72
2022/02/19 20:37:46;;;;;;;1.93;1.00;;;;;;;;;;10536351;28;20097;-70
2022/02/19 20:42:51;;;;;;;2.67;1.00;;;;;;;;;;10536298;28;20308;-71
2022/02/19 20:47:55;;;;;;;;;;;;;;;;;;10550886;28;20433;-71
2022/02/19 20:52:58;;;;;;;1.98;0.77;;;;;;;;;;10551360;28;20385;-71
2022/02/19 20:58:03;;;;;;;2.30;1.13;;;;;;;;;;10550275;28;20312;-70
2022/02/19 21:03:06;;;;;;;5.00;1.20;;;;;;;;;;10539748;28;20039;-71
2022/02/19 21:08:08;;;;;;;3.93;0.87;;;;;;;;;;10564750;28;20047;-70
2022/02/19 21:13:13;;;;;;;3.73;1.00;;;;;;;;;;10532713;28;20110;-70
2022/02/19 21:18:16;;;;;;;0.90;0.80;;;;;;;;;;10549169;28;20043;-70
2022/02/19 21:23:19;;;;;;;3.70;1.45;;;;;;;;;;10529263;22;20127;-77
2022/02/19 21:28:24;;;;;;;1.57;0.87;;;;;;;;;;10462723;28;20078;-77
2022/02/19 21:33:30;;;;;;;3.13;1.43;;;;;;;;;;10433501;28;20569;-77
2022/02/19 21:38:34;;;;;;;7.10;1.37;;;;;;;;;;10426784;28;20151;-77
2022/02/19 21:43:38;;;;;;;1.83;0.73;;;;;;;;;;10435342;28;20428;-77
2022/02/19 21:48:44;;;;;;;5.20;1.47;;;;;;;;;;10451731;28;20033;-76
2022/02/19 21:53:48;;;;;;;6.28;1.50;;;;;;;;;;10456188;28;20488;-76
2022/02/19 21:58:53;;;;;;;4.83;1.33;;;;;;;;;;10450928;28;20052;-76
2022/02/19 22:03:56;;;;;;;1.00;0.73;;;;;;;;;;10447440;28;20033;-77
2022/02/19 22:09:01;;;;;;;2.22;1.10;;;;;;;;;;10442247;28;20072;-77
2022/02/19 22:14:05;;;;;;;1.27;0.63;;;;;;;;;;10462943;28;20058;-76
2022/02/19 22:19:09;;;;;;;9.60;1.80;;;;;;;;;;10436435;28;20485;-77
2022/02/19 22:24:14;;;;;;;2.27;0.60;;;;;;;;;;10459038;28;20100;-77
2022/02/19 22:29:20;;;;;;;1.60;0.93;;;;;;;;;;10438443;28;20049;-77
2022/02/19 22:34:23;;;;;;;4.03;0.60;;;;;;;;;;10439988;28;20047;-77
2022/02/19 22:39:26;;;;;;;4.50;1.03;;;;;;;;;;10462292;28;20036;-77
2022/02/19 22:44:30;;;;;;;5.60;2.17;;;;;;;;;;10433962;28;20159;-77
2022/02/19 22:49:33;;;;;;;2.77;0.43;;;;;;;;;;10448079;28;20094;-76
2022/02/19 22:54:36;;;;;;;2.10;0.70;;;;;;;;;;10438719;28;20628;-77
2022/02/19 22:59:41;;;;;;;5.90;1.40;;;;;;;;;;10448708;28;20356;-76
2022/02/19 23:10:05;;;;;;;1.90;0.40;;;;;;;;;;10441575;28;20121;-75
2022/02/19 23:15:09;;;;;;;5.20;0.80;;;;;;;;;;10452006;28;20066;-76
2022/02/19 23:20:13;;;;;;;5.10;0.53;;;;;;;;;;10444106;28;20033;-76
2022/02/19 23:25:16;;;;;;;4.73;0.70;;;;;;;;;;10445321;28;20053;-76
2022/02/19 23:30:20;;;;;;;2.37;0.70;;;;;;;;;;10394787;28;20042;-77
2022/02/19 23:35:22;;;;;;;;;;;;;;;;;;10428631;28;20420;-76
2022/02/19 23:40:25;;;;;;;3.70;1.50;;;;;;;;;;10461791;28;20003;-76
2022/02/19 23:45:29;;;;;;;1.23;0.50;;;;;;;;;;10460948;28;20044;-76
2022/02/19 23:50:32;;;;;;;;;;;;;;;;;;10452431;28;20512;-77
2022/02/19 23:55:35;;;;;;;1.77;0.60;;;;;;;;;;10453208;28;19925;-75
